Time;durP1;ratioP1;P1;durP2;ratioP2;P2;SDS_P1;SDS_P2;PMS_P1;PMS_P2;Temp;Humidity;BMP_temperature;BMP_pressure;BME280_temperature;BME280_humidity;BME280_pressure;Samples;Min_cycle;Max_cycle;Signal;HPM_P1;HPM_P2
2022/02/19 00:01:29;;;;;;;18.75;3.50;;;;;;;5.37;58.46;98685.06;5068121;28;20056;-69
2022/02/19 00:03:56;;;;;;;11.23;3.47;;;;;;;5.31;58.98;98678.31;5070825;28;20489;-70
2022/02/19 00:06:22;;;;;;;11.10;4.15;;;;;;;5.29;59.46;98674.06;5067421;28;20035;-69
2022/02/19 00:08:47;;;;;;;15.45;3.10;;;;;;;5.27;59.95;98694.22;5068091;28;20036;-70
2022/02/19 00:11:12;;;;;;;12.80;4.30;;;;;;;5.27;59.72;98705.53;5067718;28;20064;-70
2022/02/19 00:13:38;;;;;;;6.65;3.10;;;;;;;5.29;59.96;98693.25;5065916;28;20035;-69
2022/02/19 00:16:05;;;;;;;15.13;5.47;;;;;;;5.32;60.64;98694.88;5068096;28;20028;-69
2022/02/19 00:18:31;;;;;;;17.67;4.03;;;;;;;5.30;60.51;98699.31;5082757;28;20078;-70
2022/02/19 00:20:57;;;;;;;20.58;4.00;;;;;;;5.25;60.47;98689.06;5086018;28;20032;-69
2022/02/19 00:23:22;;;;;;;9.82;3.83;;;;;;;5.27;61.09;98715.13;5087653;28;20051;-72
2022/02/19 00:25:47;;;;;;;16.70;4.72;;;;;;;5.24;61.12;98700.44;5068620;28;20050;-70
2022/02/19 00:28:12;;;;;;;18.48;4.22;;;;;;;5.26;61.51;98702.97;5087329;28;20020;-69
2022/02/19 00:30:38;;;;;;;12.40;5.70;;;;;;;5.27;61.26;98708.13;5087549;28;20416;-69
2022/02/19 00:33:03;;;;;;;21.08;4.20;;;;;;;5.30;60.76;98700.16;5088504;28;20489;-70
2022/02/19 00:35:29;;;;;;;9.43;3.58;;;;;;;5.27;60.50;98718.59;5087906;28;20485;-69
2022/02/19 00:37:54;;;;;;;14.93;4.13;;;;;;;5.35;60.96;98724.31;5088039;28;20090;-69
2022/02/19 00:40:19;;;;;;;17.75;3.40;;;;;;;5.35;60.47;98723.47;5086206;28;20039;-69
2022/02/19 00:42:45;;;;;;;13.70;4.10;;;;;;;5.34;60.58;98729.59;5078993;28;20039;-69
2022/02/19 00:45:10;;;;;;;10.60;4.35;;;;;;;5.34;60.75;98746.16;5069240;28;20123;-69
2022/02/19 00:47:35;;;;;;;17.38;3.75;;;;;;;5.27;60.28;98742.09;5067698;28;20398;-69
2022/02/19 00:50:01;;;;;;;15.35;5.72;;;;;;;5.26;60.84;98745.63;5065401;28;20029;-69
2022/02/19 00:52:26;;;;;;;16.05;3.75;;;;;;;5.25;61.01;98740.47;5066574;28;20029;-69
2022/02/19 00:54:52;;;;;;;14.20;4.65;;;;;;;5.27;60.97;98749.94;5066902;28;20036;-69
2022/02/19 00:57:17;;;;;;;9.65;3.63;;;;;;;5.26;61.10;98758.69;5049890;28;20028;-68
2022/02/19 00:59:42;;;;;;;8.40;3.42;;;;;;;5.24;61.14;98767.50;5066400;28;20045;-68
2022/02/19 01:02:08;;;;;;;14.98;3.80;;;;;;;5.24;61.53;98768.38;5085367;28;20032;-69
2022/02/19 01:04:33;;;;;;;15.15;3.00;;;;;;;5.20;61.52;98773.81;5086844;28;20036;-69
2022/02/19 01:06:58;;;;;;;11.10;4.80;;;;;;;5.22;61.51;98771.94;5086871;28;20035;-67
2022/02/19 01:09:26;;;;;;;10.32;2.78;;;;;;;5.19;60.94;98785.16;5086845;28;20028;-68
2022/02/19 01:11:53;;;;;;;10.70;3.25;;;;;;;5.25;61.29;98769.22;5087508;28;20032;-68
2022/02/19 01:14:18;;;;;;;12.05;5.22;;;;;;;5.23;61.30;98782.34;5087623;28;20062;-70
2022/02/19 01:16:43;;;;;;;10.80;3.72;;;;;;;5.25;60.47;98772.69;5068901;28;20104;-70
2022/02/19 01:19:09;;;;;;;11.90;4.47;;;;;;;5.20;60.59;98781.63;5087238;28;20024;-69
2022/02/19 01:21:34;;;;;;;10.57;3.63;;;;;;;5.19;60.00;98777.31;5086629;28;20035;-69
2022/02/19 01:23:59;;;;;;;12.20;3.67;;;;;;;5.05;60.60;98789.22;5087566;28;20626;-70
2022/02/19 01:26:25;;;;;;;11.50;3.88;;;;;;;5.02;61.42;98783.25;5086904;28;20074;-70
2022/02/19 01:28:50;;;;;;;12.77;3.67;;;;;;;4.96;61.59;98794.81;5068776;28;20062;-69
2022/02/19 01:31:15;;;;;;;8.98;3.65;;;;;;;4.93;62.17;98793.19;5086878;28;20032;-69
2022/02/19 01:33:41;;;;;;;13.07;4.13;;;;;;;4.88;62.81;98800.38;5087136;28;20028;-69
2022/02/19 01:36:06;;;;;;;11.48;5.00;;;;;;;4.85;63.04;98815.31;5087636;28;20426;-68
2022/02/19 01:38:32;;;;;;;16.48;4.47;;;;;;;4.80;63.60;98815.53;5086862;28;20550;-68
2022/02/19 01:40:58;;;;;;;18.98;4.80;;;;;;;4.78;63.59;98824.34;5085611;28;20040;-69
2022/02/19 01:43:23;;;;;;;19.25;4.30;;;;;;;4.76;63.21;98824.38;5087632;28;20028;-68
2022/02/19 01:45:49;;;;;;;11.60;3.72;;;;;;;4.78;62.84;98830.41;5087216;28;20062;-68
2022/02/19 01:48:15;;;;;;;13.30;4.50;;;;;;;4.81;62.37;98835.47;5086535;28;20073;-68
2022/02/19 01:50:42;;;;;;;12.38;3.47;;;;;;;4.83;63.21;98833.66;5086854;28;20121;-68
2022/02/19 01:53:08;;;;;;;10.88;4.68;;;;;;;4.81;62.89;98843.31;5087012;28;20412;-68
2022/02/19 01:55:34;;;;;;;15.00;3.80;;;;;;;4.79;63.99;98850.34;5086728;28;20155;-68
2022/02/19 01:58:01;;;;;;;19.30;4.10;;;;;;;4.81;64.58;98845.09;5087124;28;20119;-69
2022/02/19 02:00:27;;;;;;;13.40;4.13;;;;;;;4.79;64.94;98826.84;5087140;28;20401;-68
2022/02/19 02:02:52;;;;;;;18.23;3.78;;;;;;;4.79;63.94;98837.31;5054769;28;20024;-69
2022/02/19 02:05:18;;;;;;;12.75;4.30;;;;;;;4.77;64.81;98836.50;5086570;28;20039;-69
2022/02/19 02:07:44;;;;;;;13.02;5.30;;;;;;;4.72;65.30;98830.63;5090794;28;20028;-69
2022/02/19 02:10:09;;;;;;;10.60;3.15;;;;;;;4.72;65.17;98843.69;5072893;28;20623;-69
2022/02/19 02:12:35;;;;;;;13.15;2.95;;;;;;;4.74;65.18;98844.47;5079826;28;20135;-69
2022/02/19 02:15:01;;;;;;;13.32;3.20;;;;;;;4.77;65.01;98860.00;5090045;28;20059;-69
2022/02/19 02:17:26;;;;;;;11.18;3.95;;;;;;;4.77;65.59;98873.06;5091258;28;20032;-69
2022/02/19 02:19:53;;;;;;;14.75;3.78;;;;;;;4.77;65.46;98891.34;5090457;28;20131;-69
2022/02/19 02:22:19;;;;;;;14.63;3.80;;;;;;;4.81;65.43;98895.53;5090854;28;20036;-69
2022/02/19 02:24:46;;;;;;;13.52;4.20;;;;;;;4.82;65.69;98899.84;5072403;28;20035;-69
2022/02/19 02:27:12;;;;;;;11.52;4.70;;;;;;;4.80;65.06;98909.53;5090953;28;20043;-69
2022/02/19 02:29:46;;;;;;;11.52;3.38;;;;;;;4.81;64.72;98905.16;5090426;28;20452;-69
2022/02/19 02:32:12;;;;;;;11.00;4.43;;;;;;;4.84;65.82;98916.31;5091032;28;20434;-69
2022/02/19 02:34:54;;;;;;;14.27;4.00;;;;;;;4.85;64.50;98922.38;5090796;28;20043;-69
2022/02/19 02:37:20;;;;;;;14.70;3.17;;;;;;;4.84;63.59;98926.75;5072682;28;20036;-69
2022/02/19 02:39:47;;;;;;;14.27;3.85;;;;;;;4.84;63.47;98928.50;5089922;28;20036;-69
2022/02/19 02:42:13;;;;;;;9.30;3.90;;;;;;;4.81;60.51;98923.44;5090427;28;20032;-69
2022/02/19 02:44:39;;;;;;;10.60;3.35;;;;;;;4.85;60.95;98946.75;5089612;28;20123;-69
2022/02/19 02:47:04;;;;;;;11.13;3.00;;;;;;;4.83;60.48;98948.56;5089965;28;20134;-69
2022/02/19 02:49:30;;;;;;;25.60;4.40;;;;;;;4.83;61.21;98942.50;5089257;28;20511;-69
2022/02/19 02:51:56;;;;;;;10.60;3.40;;;;;;;4.82;60.42;98957.28;5090859;28;20445;-69
2022/02/19 02:54:21;;;;;;;14.93;3.53;;;;;;;4.84;60.67;98965.91;5089822;28;20051;-69
2022/02/19 02:56:46;;;;;;;14.23;2.83;;;;;;;4.82;60.44;98961.66;5089491;28;20519;-70
2022/02/19 02:59:12;;;;;;;17.15;4.28;;;;;;;4.80;58.73;98966.09;5089633;28;20115;-69
2022/02/19 03:01:37;;;;;;;8.93;3.13;;;;;;;4.77;57.11;98977.50;5090246;28;20040;-69
2022/02/19 03:04:02;;;;;;;6.53;2.58;;;;;;;4.75;57.12;98987.19;5085891;28;20028;-69
2022/02/19 03:06:28;;;;;;;6.78;2.08;;;;;;;4.77;57.17;98990.56;5089605;28;20100;-69
2022/02/19 03:08:53;;;;;;;9.52;2.05;;;;;;;4.76;55.81;98991.50;5089985;28;20121;-69
2022/02/19 03:11:18;;;;;;;4.18;1.88;;;;;;;4.74;55.38;98998.53;5071248;28;20397;-69
2022/02/19 03:13:44;;;;;;;8.50;3.00;;;;;;;4.74;55.51;99004.59;5088776;28;20632;-69
2022/02/19 03:16:09;;;;;;;6.95;2.33;;;;;;;4.74;56.01;99001.97;5088827;28;20032;-69
2022/02/19 03:18:35;;;;;;;7.90;2.97;;;;;;;4.70;56.56;99002.16;5088940;28;20043;-70
2022/02/19 03:21:00;;;;;;;10.95;2.33;;;;;;;4.69;56.76;99011.75;5089095;28;20050;-69
2022/02/19 03:23:25;;;;;;;9.80;2.47;;;;;;;4.62;57.44;99012.03;5090001;28;20028;-69
2022/02/19 03:25:51;;;;;;;7.35;2.78;;;;;;;4.58;56.57;99011.31;5088884;28;20540;-69
2022/02/19 03:28:16;;;;;;;8.80;3.53;;;;;;;4.51;56.40;99034.19;5089224;28;20028;-69
2022/02/19 03:30:41;;;;;;;6.05;2.85;;;;;;;4.46;57.41;99024.81;5089150;28;20522;-69
2022/02/19 03:33:07;;;;;;;11.90;3.00;;;;;;;4.44;57.81;99039.69;5088700;28;20032;-69
2022/02/19 03:35:32;;;;;;;9.40;3.22;;;;;;;4.43;58.15;99037.97;5089183;28;20127;-70
2022/02/19 03:37:57;;;;;;;11.20;2.38;;;;;;;4.47;58.46;99039.56;5089895;28;20520;-69
2022/02/19 03:40:23;;;;;;;8.80;2.40;;;;;;;4.47;58.11;99050.84;5089001;28;20379;-69
2022/02/19 03:42:48;;;;;;;11.13;3.20;;;;;;;4.52;58.48;99054.13;5070869;28;20058;-69
2022/02/19 03:45:14;;;;;;;14.50;2.45;;;;;;;4.51;58.09;99067.25;5088983;28;20045;-69
2022/02/19 03:47:41;;;;;;;14.60;3.70;;;;;;;4.52;57.13;99074.16;5089127;28;20040;-69
2022/02/19 03:50:08;;;;;;;12.52;3.25;;;;;;;4.56;57.17;99077.53;5088573;28;20024;-69
2022/02/19 03:52:35;;;;;;;15.35;2.58;;;;;;;4.56;57.16;99083.59;5089036;28;20028;-69
2022/02/19 03:55:01;;;;;;;10.20;2.55;;;;;;;4.56;57.30;99083.59;5088624;28;20032;-69
2022/02/19 03:57:26;;;;;;;6.88;2.20;;;;;;;4.57;57.49;99090.50;5089276;28;20105;-69
2022/02/19 03:59:51;;;;;;;10.98;3.83;;;;;;;4.55;57.17;99094.94;5088260;28;20029;-69
2022/02/19 04:02:17;;;;;;;11.18;2.67;;;;;;;4.58;57.02;99110.50;5089027;28;20097;-69
2022/02/19 04:04:43;;;;;;;12.65;4.70;;;;;;;4.57;57.08;99098.34;5084456;28;20056;-69
2022/02/19 04:07:08;;;;;;;11.27;4.20;;;;;;;4.57;57.84;99118.38;5089078;28;20500;-70
2022/02/19 04:09:34;;;;;;;6.47;2.30;;;;;;;4.57;57.16;99123.59;5088253;28;20081;-68
2022/02/19 04:11:59;;;;;;;10.18;3.90;;;;;;;4.58;57.98;99115.72;5087094;28;20028;-70
2022/02/19 04:14:25;;;;;;;11.02;2.88;;;;;;;4.61;57.64;99120.84;5070786;28;20396;-70
2022/02/19 04:16:50;;;;;;;11.00;3.10;;;;;;;4.63;57.07;99142.53;5070268;28;20032;-69
2022/02/19 04:19:15;;;;;;;9.82;2.65;;;;;;;4.64;57.10;99152.03;5088243;28;20028;-70
2022/02/19 04:21:41;;;;;;;5.63;2.22;;;;;;;4.61;57.40;99144.34;5088922;28;20108;-70
2022/02/19 04:24:06;;;;;;;15.00;2.80;;;;;;;4.62;57.07;99174.75;5091562;28;20135;-70
2022/02/19 04:26:32;;;;;;;8.23;2.70;;;;;;;4.63;57.36;99167.78;5088066;28;20038;-70
2022/02/19 04:28:57;;;;;;;7.88;3.28;;;;;;;4.61;56.70;99165.22;5056107;28;20028;-70
2022/02/19 04:31:23;;;;;;;8.48;2.60;;;;;;;4.60;57.25;99165.25;5089728;28;20547;-69
2022/02/19 04:33:48;;;;;;;6.35;2.40;;;;;;;4.62;56.72;99171.28;5088549;28;20044;-69
2022/02/19 04:36:14;;;;;;;17.27;2.97;;;;;;;4.62;57.07;99173.88;5088039;28;20032;-69
2022/02/19 04:38:39;;;;;;;8.27;2.58;;;;;;;4.60;56.65;99188.75;5088401;28;20039;-69
2022/02/19 04:41:04;;;;;;;10.68;3.10;;;;;;;4.57;57.07;99186.25;5088043;28;20035;-69
2022/02/19 04:43:30;;;;;;;7.28;2.92;;;;;;;4.55;56.60;99195.88;5088252;28;20465;-69
2022/02/19 04:45:55;;;;;;;12.93;3.05;;;;;;;4.52;57.17;99184.66;5088318;28;20560;-69
2022/02/19 04:48:20;;;;;;;9.18;2.45;;;;;;;4.48;57.04;99200.50;5087694;28;20101;-69
2022/02/19 04:50:46;;;;;;;8.73;2.90;;;;;;;4.47;57.23;99204.81;5087274;28;20043;-69
2022/02/19 04:53:11;;;;;;;8.82;2.70;;;;;;;4.42;57.72;99204.13;5088010;28;20032;-69
2022/02/19 04:55:37;;;;;;;8.43;3.03;;;;;;;4.36;58.07;99217.41;5087343;28;20119;-69
2022/02/19 04:58:03;;;;;;;7.97;3.25;;;;;;;4.30;58.61;99217.59;5087673;28;20028;-69
2022/02/19 05:00:28;;;;;;;10.70;3.65;;;;;;;4.23;58.65;99229.13;5072198;28;20115;-69
2022/02/19 05:02:53;;;;;;;13.77;3.17;;;;;;;4.21;58.75;99228.31;5067629;28;20127;-69
2022/02/19 05:05:19;;;;;;;20.27;5.05;;;;;;;4.17;59.23;99230.19;5066886;28;20110;-69
2022/02/19 05:07:44;;;;;;;9.10;4.28;;;;;;;4.11;59.84;99233.00;5067165;28;20033;-69
2022/02/19 05:10:10;;;;;;;11.32;3.90;;;;;;;4.09;59.97;99235.66;5067389;28;20040;-69
2022/02/19 05:12:40;;;;;;;10.48;2.78;;;;;;;4.08;59.99;99249.56;5067744;28;20502;-69
2022/02/19 05:15:09;;;;;;;11.93;3.45;;;;;;;4.06;60.18;99237.47;5067251;28;20132;-70
2022/02/19 05:17:34;;;;;;;15.55;3.33;;;;;;;4.07;60.13;99255.69;5067337;28;20036;-69
2022/02/19 05:19:59;;;;;;;11.30;4.15;;;;;;;4.08;60.55;99249.56;5067362;28;20551;-69
2022/02/19 05:22:25;;;;;;;12.15;3.88;;;;;;;4.11;60.31;99258.22;5067362;28;20044;-69
2022/02/19 05:24:50;;;;;;;12.05;4.28;;;;;;;4.09;60.80;99268.72;5047539;28;20040;-69
2022/02/19 05:27:15;;;;;;;10.05;3.40;;;;;;;4.11;60.64;99250.38;5067031;28;20580;-69
2022/02/19 05:29:40;;;;;;;10.63;3.10;;;;;;;4.11;60.83;99261.69;5066963;28;20036;-69
2022/02/19 05:32:06;;;;;;;19.42;4.28;;;;;;;4.09;60.77;99253.06;5067519;28;20052;-69
2022/02/19 05:34:32;;;;;;;9.55;3.25;;;;;;;4.09;61.36;99253.06;5067000;28;20448;-70
2022/02/19 05:36:57;;;;;;;15.48;2.83;;;;;;;4.08;61.49;99266.97;5067471;28;20040;-69
2022/02/19 05:39:22;;;;;;;15.75;3.90;;;;;;;4.09;61.50;99266.94;5070742;28;20226;-69
2022/02/19 05:41:47;;;;;;;14.32;3.88;;;;;;;4.08;61.48;99270.44;5071146;28;20052;-69
2022/02/19 05:44:13;;;;;;;14.25;3.55;;;;;;;4.08;62.03;99282.63;5071376;28;20036;-69
2022/02/19 05:46:38;;;;;;;16.90;4.88;;;;;;;4.04;62.30;99276.69;5070671;28;20040;-69
2022/02/19 05:49:04;;;;;;;15.63;3.78;;;;;;;3.99;62.00;99272.50;5070882;28;20044;-69
2022/02/19 05:51:29;;;;;;;13.73;3.95;;;;;;;3.96;62.10;99273.44;5054021;28;20447;-70
2022/02/19 05:53:55;;;;;;;12.55;3.47;;;;;;;3.96;61.72;99280.41;5071987;28;20040;-69
2022/02/19 05:56:21;;;;;;;11.70;3.53;;;;;;;3.94;61.84;99274.38;5070979;28;20036;-70
2022/02/19 05:58:46;;;;;;;11.60;3.28;;;;;;;3.95;61.99;99276.94;5071370;28;20044;-68
2022/02/19 06:01:12;;;;;;;11.50;4.05;;;;;;;3.96;62.22;99283.84;5070871;28;20179;-68
2022/02/19 06:03:40;;;;;;;20.42;4.30;;;;;;;3.97;61.51;99292.56;5071352;28;20047;-69
2022/02/19 06:06:06;;;;;;;12.85;4.00;;;;;;;3.98;61.77;99297.72;5054912;28;20049;-70
2022/02/19 06:08:32;;;;;;;15.27;3.78;;;;;;;3.98;61.89;99289.03;5070669;28;20036;-69
2022/02/19 06:10:57;;;;;;;9.82;3.60;;;;;;;4.00;61.99;99282.88;5070620;28;20040;-69
2022/02/19 06:13:22;;;;;;;14.95;4.50;;;;;;;4.00;62.03;99295.91;5069855;28;20032;-68
2022/02/19 06:15:48;;;;;;;10.15;3.28;;;;;;;4.00;61.84;99297.69;5069339;28;20036;-68
2022/02/19 06:18:14;;;;;;;10.48;4.05;;;;;;;3.98;62.06;99296.88;5070862;28;20048;-69
2022/02/19 06:20:39;;;;;;;10.57;3.97;;;;;;;3.97;62.31;99293.41;5079905;28;20090;-68
2022/02/19 06:23:04;;;;;;;10.60;3.65;;;;;;;3.95;62.53;99308.25;5090301;28;20455;-68
2022/02/19 06:25:30;;;;;;;17.67;5.28;;;;;;;3.93;62.76;99302.22;5090288;28;20097;-68
2022/02/19 06:27:55;;;;;;;12.90;4.28;;;;;;;3.93;62.43;99299.59;5091307;28;20032;-68
2022/02/19 06:30:20;;;;;;;12.45;3.05;;;;;;;3.92;62.27;99307.50;5089805;28;20036;-67
2022/02/19 06:32:46;;;;;;;12.32;4.10;;;;;;;3.88;62.66;99306.72;5090390;28;20113;-68
2022/02/19 06:35:11;;;;;;;10.80;3.72;;;;;;;3.87;62.75;99315.44;5090463;28;20504;-68
2022/02/19 06:37:42;;;;;;;19.27;5.88;;;;;;;3.86;62.15;99321.53;5089823;28;20039;-68
2022/02/19 06:40:09;;;;;;;22.88;6.22;;;;;;;3.85;62.32;99333.72;5090404;28;20081;-68
2022/02/19 06:42:36;;;;;;;21.40;7.97;;;;;;;3.85;61.96;99332.88;5090458;28;20406;-68
2022/02/19 06:45:02;;;;;;;20.23;6.93;;;;;;;3.85;62.16;99338.09;5090244;28;20040;-69
2022/02/19 06:47:27;;;;;;;16.40;4.90;;;;;;;3.83;62.59;99338.13;5072966;28;20028;-68
2022/02/19 06:49:53;;;;;;;9.52;5.00;;;;;;;3.84;62.51;99345.06;5089099;28;20032;-68
2022/02/19 06:52:18;;;;;;;26.58;4.70;;;;;;;3.83;62.67;99350.31;5089833;28;20032;-70
2022/02/19 06:54:43;;;;;;;15.13;5.18;;;;;;;3.82;62.63;99349.47;5071503;28;20134;-69
2022/02/19 06:57:13;;;;;;;12.35;4.13;;;;;;;3.84;62.48;99354.66;5070244;28;20043;-69
2022/02/19 06:59:42;;;;;;;11.73;4.82;;;;;;;3.83;62.42;99359.00;5068523;28;20066;-70
2022/02/19 07:02:08;;;;;;;25.98;5.53;;;;;;;3.88;62.50;99366.69;5069964;28;20055;-69
2022/02/19 07:04:33;;;;;;;24.73;9.02;;;;;;;3.91;62.58;99358.78;5069969;28;20052;-69
2022/02/19 07:06:59;;;;;;;13.15;3.78;;;;;;;3.90;62.19;99366.66;5070043;28;20113;-70
2022/02/19 07:09:25;;;;;;;15.32;4.40;;;;;;;3.88;62.25;99366.69;5069093;28;20048;-69
2022/02/19 07:11:50;;;;;;;13.23;3.30;;;;;;;3.87;62.03;99359.78;5051315;28;20036;-70
2022/02/19 07:14:16;;;;;;;12.35;3.58;;;;;;;3.88;61.82;99375.34;5069956;28;20410;-70
2022/02/19 07:16:41;;;;;;;19.65;5.00;;;;;;;3.92;61.75;99373.53;5068862;28;20123;-69
2022/02/19 07:19:07;;;;;;;18.80;4.30;;;;;;;3.93;61.45;99377.00;5069461;28;20490;-69
2022/02/19 07:21:32;;;;;;;18.55;4.25;;;;;;;3.95;61.88;99376.03;5069953;28;20033;-69
2022/02/19 07:23:57;;;;;;;10.23;3.83;;;;;;;3.98;61.62;99378.56;5051410;28;20549;-69
2022/02/19 07:26:23;;;;;;;26.75;4.72;;;;;;;4.00;61.75;99378.53;5068906;28;20036;-68
2022/02/19 07:28:49;;;;;;;12.05;3.55;;;;;;;4.04;61.73;99391.44;5068961;28;20051;-69
2022/02/19 07:31:14;;;;;;;15.45;5.93;;;;;;;4.09;61.96;99386.09;5068939;28;20379;-69
2022/02/19 07:33:40;;;;;;;18.02;4.03;;;;;;;4.12;62.35;99401.66;5069843;28;20047;-70
2022/02/19 07:36:05;;;;;;;16.42;4.43;;;;;;;4.15;62.03;99408.53;5069363;28;20119;-70
2022/02/19 07:38:31;;;;;;;18.23;4.00;;;;;;;4.21;61.87;99413.53;5069835;28;20040;-70
2022/02/19 07:40:56;;;;;;;15.23;4.25;;;;;;;4.25;61.79;99418.63;5051531;28;20043;-70
2022/02/19 07:43:21;;;;;;;15.32;4.60;;;;;;;4.29;62.32;99430.69;5051445;28;20727;-70
2022/02/19 07:45:47;;;;;;;27.33;4.35;;;;;;;4.31;61.92;99425.44;5068609;28;20467;-69
2022/02/19 07:48:14;;;;;;;13.90;3.67;;;;;;;4.31;61.85;99428.06;5068497;28;20041;-69
2022/02/19 07:58:51;;;;;;;13.80;4.50;;;;;;;4.42;62.06;99446.00;5069032;28;20085;-70
2022/02/19 08:01:16;;;;;;;16.45;6.22;;;;;;;4.42;62.23;99448.59;5069231;28;20040;-70
2022/02/19 08:03:41;;;;;;;16.33;7.40;;;;;;;4.45;62.64;99446.75;5088719;28;20040;-72
2022/02/19 08:06:07;;;;;;;20.85;5.18;;;;;;;4.49;62.52;99445.78;5088602;28;20072;-70
2022/02/19 08:08:33;;;;;;;15.27;4.88;;;;;;;4.50;62.71;99462.28;5088457;28;20047;-70
2022/02/19 08:10:59;;;;;;;13.32;3.53;;;;;;;4.54;63.22;99458.69;5088561;28;20047;-69
2022/02/19 08:13:25;;;;;;;15.32;3.97;;;;;;;4.57;62.99;99463.81;5087450;28;20417;-69
2022/02/19 08:15:50;;;;;;;14.10;4.43;;;;;;;4.65;62.80;99466.19;5088352;28;20047;-70
2022/02/19 08:18:17;;;;;;;16.83;5.30;;;;;;;4.70;63.00;99469.50;5088629;28;20062;-73
2022/02/19 08:20:44;;;;;;;13.43;4.00;;;;;;;4.74;62.80;99465.91;5087148;28;20028;-70
2022/02/19 08:23:11;;;;;;;21.38;4.00;;;;;;;4.79;62.47;99473.63;5088793;28;20032;-69
2022/02/19 08:25:38;;;;;;;18.50;4.35;;;;;;;4.85;62.70;99471.69;5088973;28;20582;-70
2022/02/19 08:28:05;;;;;;;13.77;4.43;;;;;;;4.91;62.54;99478.47;5076470;28;20048;-70
2022/02/19 08:30:34;;;;;;;30.02;4.40;;;;;;;4.95;62.31;99480.94;5092564;28;20043;-70
2022/02/19 08:33:00;;;;;;;15.25;4.85;;;;;;;4.99;62.32;99480.81;5090021;28;20032;-70
2022/02/19 08:35:25;;;;;;;23.60;4.03;;;;;;;5.04;62.29;99478.91;5088426;28;20044;-70
2022/02/19 08:37:51;;;;;;;20.88;4.88;;;;;;;5.09;62.66;99487.47;5088938;28;20028;-70
2022/02/19 08:40:16;;;;;;;12.02;4.70;;;;;;;5.15;62.10;99482.06;5090955;28;20040;-70
2022/02/19 08:42:42;;;;;;;11.30;4.53;;;;;;;5.20;62.16;99493.22;5088242;28;20096;-70
2022/02/19 08:45:09;;;;;;;18.42;4.07;;;;;;;5.24;62.30;99487.00;5087548;28;20217;-70
2022/02/19 08:47:34;;;;;;;11.30;5.03;;;;;;;5.29;61.79;99494.66;5086816;28;20051;-69
2022/02/19 08:50:01;;;;;;;16.55;4.10;;;;;;;5.30;61.20;99488.56;5068356;28;20439;-70
2022/02/19 08:52:26;;;;;;;12.50;4.05;;;;;;;5.37;61.10;99483.06;5068429;28;20062;-69
2022/02/19 08:54:52;;;;;;;13.70;3.47;;;;;;;5.39;61.11;99493.50;5066411;28;20063;-69
2022/02/19 08:57:18;;;;;;;24.38;6.22;;;;;;;5.41;60.77;99488.19;5066883;28;20502;-69
2022/02/19 08:59:43;;;;;;;23.20;5.10;;;;;;;5.50;60.94;99499.19;5066669;28;20119;-69
2022/02/19 09:02:08;;;;;;;23.48;8.25;;;;;;;5.56;60.53;99504.25;5067425;28;20036;-69
2022/02/19 09:04:34;;;;;;;11.25;4.43;;;;;;;5.64;60.81;99501.38;5049770;28;20071;-69
2022/02/19 09:06:59;;;;;;;16.27;4.20;;;;;;;5.74;60.76;99512.38;5067236;28;20665;-69
2022/02/19 09:09:25;;;;;;;14.13;4.15;;;;;;;5.84;60.06;99515.53;5066852;28;20258;-69
2022/02/19 09:11:50;;;;;;;8.60;4.03;;;;;;;5.95;60.26;99510.78;5066801;28;20062;-70
2022/02/19 09:14:15;;;;;;;15.00;3.67;;;;;;;6.10;59.79;99504.19;5066586;28;20048;-70
2022/02/19 09:16:42;;;;;;;15.77;4.47;;;;;;;6.49;58.85;99503.66;5066499;28;20025;-68
2022/02/19 09:19:08;;;;;;;21.10;5.00;;;;;;;6.58;58.20;99504.16;5066493;28;20444;-68
2022/02/19 09:21:36;;;;;;;12.43;3.22;;;;;;;7.21;56.15;99512.22;5067265;28;20051;-69
2022/02/19 09:24:01;;;;;;;15.95;4.35;;;;;;;7.05;57.23;99505.88;5048216;28;20117;-69
2022/02/19 09:26:27;;;;;;;16.20;3.67;;;;;;;7.59;56.55;99504.56;5066434;28;20564;-69
2022/02/19 09:28:52;;;;;;;10.63;4.43;;;;;;;8.68;53.73;99509.47;5066952;28;20565;-70
2022/02/19 09:31:21;;;;;;;17.13;4.85;;;;;;;9.50;51.38;99507.34;5065725;28;20036;-69
2022/02/19 09:33:48;;;;;;;17.67;4.53;;;;;;;10.28;49.41;99507.78;5066824;28;20604;-69
2022/02/19 09:36:14;;;;;;;9.30;4.38;;;;;;;10.78;47.45;99506.88;5066447;28;20040;-71
2022/02/19 09:38:40;;;;;;;16.58;3.95;;;;;;;10.87;46.39;99505.50;5066779;28;20032;-70
2022/02/19 09:41:07;;;;;;;11.20;3.70;;;;;;;11.06;45.64;99500.91;5066554;28;20028;-70
2022/02/19 09:43:36;;;;;;;10.15;3.88;;;;;;;11.73;44.33;99500.63;5067291;28;20028;-70
2022/02/19 09:46:06;;;;;;;12.13;3.95;;;;;;;11.86;43.02;99506.03;5066845;28;20028;-70
2022/02/19 09:48:33;;;;;;;12.93;4.20;;;;;;;11.92;42.72;99503.94;5066380;28;20079;-70
2022/02/19 09:50:58;;;;;;;8.15;3.55;;;;;;;12.15;42.05;99497.25;5065837;28;20029;-69
2022/02/19 09:53:28;;;;;;;7.57;3.95;;;;;;;12.08;41.81;99490.66;5079273;28;20028;-70
2022/02/19 09:55:55;;;;;;;14.63;4.18;;;;;;;12.38;40.69;99490.59;5086005;28;20134;-71
2022/02/19 09:58:22;;;;;;;5.80;2.90;;;;;;;11.96;40.99;99499.31;5076368;28;20077;-70
2022/02/19 10:00:48;;;;;;;13.23;4.60;;;;;;;12.45;40.19;99488.41;5066509;28;20542;-70
2022/02/19 10:03:22;;;;;;;11.27;4.22;;;;;;;12.84;39.66;99478.91;5066910;28;20195;-69
2022/02/19 10:05:53;;;;;;;9.00;3.60;;;;;;;13.22;39.57;99487.06;5066485;28;20451;-70
2022/02/19 10:08:18;;;;;;;17.60;3.85;;;;;;;13.39;39.00;99482.47;5067100;28;20040;-69
2022/02/19 10:10:55;;;;;;;12.50;3.75;;;;;;;13.27;38.36;99477.06;5065599;28;20036;-69
2022/02/19 10:13:30;;;;;;;15.45;3.35;;;;;;;13.48;38.31;99473.94;5079359;28;20771;-71
2022/02/19 10:15:55;;;;;;;13.20;4.40;;;;;;;13.02;38.71;99468.94;5086452;28;20169;-70
2022/02/19 10:18:22;;;;;;;13.85;3.85;;;;;;;12.62;39.54;99467.03;5086873;28;20063;-70
2022/02/19 10:21:15;;;;;;;11.82;3.47;;;;;;;12.54;40.18;99479.06;5086463;28;20591;-70
2022/02/19 10:23:49;;;;;;;12.80;4.22;;;;;;;12.26;40.86;99480.78;5080701;28;20089;-70
2022/02/19 10:26:16;;;;;;;10.50;3.28;;;;;;;11.60;41.63;99484.66;5090549;28;20031;-69
2022/02/19 10:29:02;;;;;;;16.48;4.43;;;;;;;10.75;43.61;99493.84;5090226;28;20119;-70
2022/02/19 10:31:28;;;;;;;9.98;3.97;;;;;;;11.29;42.31;99486.41;5091288;28;20397;-69
2022/02/19 10:34:16;;;;;;;13.15;3.80;;;;;;;10.78;43.51;99488.41;5091300;28;20031;-69
2022/02/19 10:36:50;;;;;;;31.58;5.28;;;;;;;9.75;46.39;99470.09;5090186;28;20036;-69
2022/02/19 10:39:26;;;;;;;9.90;2.65;;;;;;;9.41;46.83;99503.34;5090711;28;20032;-69
2022/02/19 10:41:51;;;;;;;10.27;2.92;;;;;;;10.00;45.02;99493.38;5090886;28;20084;-70
2022/02/19 10:44:31;;;;;;;12.73;3.42;;;;;;;10.68;43.89;99495.09;5090674;28;20032;-68
2022/02/19 10:47:23;;;;;;;8.70;3.17;;;;;;;9.96;45.82;99497.09;5089394;28;20060;-71
2022/02/19 10:50:09;;;;;;;9.57;4.60;;;;;;;9.66;45.56;99496.88;5071041;28;20039;-70
2022/02/19 10:52:36;;;;;;;7.75;2.75;;;;;;;9.55;46.84;99502.69;5090889;28;20127;-70
2022/02/19 10:55:13;;;;;;;6.70;3.35;;;;;;;9.75;46.76;99503.47;5086057;28;20097;-70
2022/02/19 10:57:40;;;;;;;8.82;2.75;;;;;;;9.65;47.08;99503.94;5089993;28;20036;-69
2022/02/19 11:00:11;;;;;;;8.80;2.70;;;;;;;9.34;46.29;99514.25;5089381;28;20032;-71
2022/02/19 11:02:38;;;;;;;7.45;3.38;;;;;;;9.10;47.82;99501.34;5090276;28;20035;-70
2022/02/19 11:05:07;;;;;;;8.52;2.72;;;;;;;8.74;49.12;99504.81;5090056;28;20115;-71
2022/02/19 11:07:34;;;;;;;7.95;3.70;;;;;;;8.38;50.03;99509.91;5090277;28;20036;-70
2022/02/19 11:10:00;;;;;;;8.95;3.00;;;;;;;8.36;49.74;99511.75;5090024;28;20107;-69
2022/02/19 11:12:26;;;;;;;9.23;3.58;;;;;;;8.17;50.60;99494.19;5090271;28;20540;-70
2022/02/19 11:14:52;;;;;;;16.25;3.67;;;;;;;8.07;50.90;99506.03;5089288;28;20027;-69
2022/02/19 11:17:18;;;;;;;7.07;3.60;;;;;;;7.94;50.86;99503.06;5070791;28;20031;-69
2022/02/19 11:19:43;;;;;;;12.57;3.90;;;;;;;7.78;51.46;99509.00;5089310;28;20031;-70
2022/02/19 11:22:10;;;;;;;13.25;3.08;;;;;;;7.85;51.21;99515.72;5088857;28;20032;-70
2022/02/19 11:24:39;;;;;;;12.10;3.05;;;;;;;7.80;51.43;99508.06;5089796;28;20034;-69
2022/02/19 11:27:06;;;;;;;12.98;3.45;;;;;;;7.77;51.27;99505.53;5089436;28;20540;-71
2022/02/19 11:29:32;;;;;;;14.40;3.42;;;;;;;7.75;51.70;99510.00;5089797;28;20447;-70
2022/02/19 11:32:02;;;;;;;7.55;2.25;;;;;;;7.95;51.67;99489.03;5089487;28;20237;-71
2022/02/19 11:34:27;;;;;;;11.25;3.58;;;;;;;7.98;51.74;99487.19;5089231;28;20044;-70
2022/02/19 11:37:11;;;;;;;10.18;3.83;;;;;;;7.99;51.20;99488.88;5087543;28;20582;-70
2022/02/19 11:40:07;;;;;;;14.38;2.95;;;;;;;7.98;51.69;99489.81;5088930;28;20058;-70